createdAt,value
2019-03-06T00:01:32.997Z,4.30
2019-03-06T00:04:28.661Z,4.50
2019-03-06T00:07:03.610Z,4.50
2019-03-06T00:09:51.078Z,4.50
2019-03-06T00:12:58.919Z,4.40
2019-03-06T00:15:12.865Z,4.40
2019-03-06T00:18:02.136Z,4.40
2019-03-06T00:20:44.802Z,4.50
2019-03-06T00:23:23.131Z,4.60
2019-03-06T00:26:14.473Z,4.60
2019-03-06T00:28:57.147Z,4.70
2019-03-06T00:31:36.180Z,4.80
2019-03-06T00:34:25.763Z,4.90
2019-03-06T00:36:57.613Z,4.90
2019-03-06T00:39:44.362Z,4.90
2019-03-06T00:42:25.539Z,4.90
2019-03-06T00:45:04.714Z,4.90
2019-03-06T00:47:44.334Z,4.90
2019-03-06T00:50:47.564Z,4.90
2019-03-06T00:53:10.575Z,5.00
2019-03-06T00:56:02.064Z,5.10
2019-03-06T00:58:40.364Z,5.10
2019-03-06T01:01:26.048Z,5.10
2019-03-06T01:04:09.632Z,5.10
2019-03-06T01:06:47.592Z,5.10
2019-03-06T01:09:25.411Z,5.00
2019-03-06T01:12:03.079Z,5.00
2019-03-06T01:14:51.888Z,5.00
2019-03-06T01:17:28.887Z,5.00
2019-03-06T01:20:37.029Z,5.00
2019-03-06T01:22:49.549Z,5.00
2019-03-06T01:28:24.371Z,5.10
2019-03-06T01:31:05.367Z,5.10
2019-03-06T01:33:46.780Z,5.10
2019-03-06T01:36:38.528Z,5.00
2019-03-06T01:39:26.211Z,5.00
2019-03-06T01:42:19.365Z,5.00
2019-03-06T01:44:57.983Z,5.00
2019-03-06T01:47:36.855Z,5.00
2019-03-06T01:50:14.708Z,5.00
2019-03-06T01:53:05.732Z,5.10
2019-03-06T01:55:33.726Z,5.10
2019-03-06T01:58:25.670Z,5.10
2019-03-06T02:01:03.763Z,5.00
2019-03-06T02:03:45.013Z,5.00
2019-03-06T02:06:28.397Z,5.10
2019-03-06T02:09:08.341Z,5.00
2019-03-06T02:11:43.630Z,5.00
2019-03-06T02:14:33.207Z,5.10
2019-03-06T02:17:13.772Z,5.00
2019-03-06T02:19:52.577Z,5.00
2019-03-06T02:22:27.836Z,5.10
2019-03-06T02:25:01.952Z,5.10
2019-03-06T02:27:40.234Z,5.10
2019-03-06T02:30:30.076Z,5.00
2019-03-06T02:33:07.740Z,5.00
2019-03-06T02:35:51.975Z,4.90
2019-03-06T02:38:26.262Z,4.80
2019-03-06T02:41:00.931Z,4.60
2019-03-06T02:43:39.451Z,4.50
2019-03-06T02:46:18.482Z,4.40
2019-03-06T02:48:54.540Z,4.30
2019-03-06T02:51:33.082Z,4.40
2019-03-06T02:54:13.730Z,4.40
2019-03-06T02:56:54.903Z,4.40
2019-03-06T02:59:33.380Z,4.50
2019-03-06T03:02:26.998Z,4.40
2019-03-06T03:05:15.342Z,4.30
2019-03-06T03:07:54.467Z,4.30
2019-03-06T03:10:35.589Z,4.40
2019-03-06T03:13:12.521Z,4.40
2019-03-06T03:15:48.173Z,4.40
2019-03-06T03:18:27.299Z,4.30
2019-03-06T03:21:04.200Z,4.20
2019-03-06T03:23:37.591Z,4.20
2019-03-06T03:26:17.849Z,4.20
2019-03-06T03:28:53.694Z,4.30
2019-03-06T03:31:27.709Z,4.40
2019-03-06T03:34:01.623Z,4.40
2019-03-06T03:36:39.421Z,4.40
2019-03-06T03:39:13.534Z,4.40
2019-03-06T03:41:52.796Z,4.30
2019-03-06T03:44:25.377Z,4.40
2019-03-06T03:47:07.560Z,4.30
2019-03-06T03:49:52.976Z,4.40
2019-03-06T03:52:23.326Z,4.40
2019-03-06T03:55:04.727Z,4.30
2019-03-06T03:57:44.365Z,4.30
2019-03-06T04:00:21.008Z,4.30
2019-03-06T04:03:00.521Z,4.30
2019-03-06T04:05:50.659Z,4.30
2019-03-06T04:08:31.852Z,4.20
2019-03-06T04:11:10.471Z,4.20
2019-03-06T04:13:47.089Z,4.20
2019-03-06T04:16:27.394Z,4.20
2019-03-06T04:19:31.069Z,4.20
2019-03-06T04:22:00.547Z,4.20
2019-03-06T04:24:40.224Z,4.20
2019-03-06T04:27:17.404Z,4.20
2019-03-06T04:30:00.733Z,4.20
2019-03-06T04:32:38.715Z,4.10
2019-03-06T04:35:21.083Z,4.10
2019-03-06T04:37:57.588Z,4.10
2019-03-06T04:40:36.309Z,4.10
2019-03-06T04:43:16.388Z,4.10
2019-03-06T04:45:58.864Z,4.10
2019-03-06T04:48:42.171Z,4.10
2019-03-06T04:51:14.940Z,4.10
2019-03-06T04:53:49.344Z,4.10
2019-03-06T04:56:23.482Z,4.10
2019-03-06T04:59:06.858Z,4.10
2019-03-06T05:01:43.076Z,4.10
2019-03-06T05:04:23.833Z,4.10
2019-03-06T05:07:02.565Z,4.10
2019-03-06T05:09:50.232Z,4.10
2019-03-06T05:12:27.903Z,4.00
2019-03-06T05:15:05.863Z,4.00
2019-03-06T05:18:08.533Z,4.10
2019-03-06T05:21:00.412Z,4.00
2019-03-06T05:23:32.578Z,4.10
2019-03-06T05:26:31.986Z,4.00
2019-03-06T05:28:56.548Z,3.90
2019-03-06T05:31:35.707Z,3.90
2019-03-06T05:34:19.327Z,3.90
2019-03-06T05:37:01.036Z,3.90
2019-03-06T05:39:40.064Z,3.90
2019-03-06T05:42:18.407Z,3.90
2019-03-06T05:45:12.128Z,3.90
2019-03-06T05:47:59.284Z,3.90
2019-03-06T05:50:39.465Z,4.00
2019-03-06T05:53:22.984Z,4.00
2019-03-06T05:56:05.163Z,4.00
2019-03-06T05:58:42.730Z,4.00
2019-03-06T06:01:28.543Z,4.00
2019-03-06T06:04:09.180Z,4.10
2019-03-06T06:06:52.576Z,4.00
2019-03-06T06:09:31.538Z,4.10
2019-03-06T06:12:24.743Z,4.10
2019-03-06T06:15:08.402Z,4.10
2019-03-06T06:17:48.492Z,4.20
2019-03-06T06:20:26.527Z,4.30
2019-03-06T06:23:19.789Z,4.30
2019-03-06T06:25:54.926Z,4.30
2019-03-06T06:28:59.257Z,4.50
2019-03-06T06:31:21.414Z,4.50
2019-03-06T06:33:57.645Z,4.50
2019-03-06T06:36:44.097Z,4.60
2019-03-06T06:39:24.188Z,4.70
2019-03-06T06:41:53.936Z,4.90
2019-03-06T06:44:33.153Z,4.80
2019-03-06T06:47:13.828Z,4.90
2019-03-06T06:49:55.783Z,4.90
2019-03-06T06:53:10.239Z,4.90
2019-03-06T06:55:48.756Z,5.00
2019-03-06T06:58:35.568Z,4.90
2019-03-06T07:01:31.847Z,4.90
2019-03-06T07:04:35.106Z,4.90
2019-03-06T07:07:38.806Z,5.00
2019-03-06T07:10:43.154Z,5.20
2019-03-06T07:13:19.558Z,5.20
2019-03-06T07:16:22.714Z,4.90
2019-03-06T07:19:22.174Z,5.30
2019-03-06T07:22:19.927Z,5.40
2019-03-06T07:25:12.461Z,5.50
2019-03-06T07:28:17.476Z,5.60
2019-03-06T07:31:19.487Z,5.70
2019-03-06T07:34:20.246Z,5.90
2019-03-06T07:37:00.000Z,6.10
2019-03-06T07:39:37.840Z,6.10
2019-03-06T07:42:28.988Z,6.10
2019-03-06T07:45:40.261Z,6.30
2019-03-06T07:48:19.481Z,6.60
2019-03-06T07:51:06.558Z,6.50
2019-03-06T07:54:10.657Z,6.50
2019-03-06T07:56:52.180Z,6.60
2019-03-06T07:59:29.168Z,6.80
2019-03-06T08:02:41.656Z,7.10
2019-03-06T08:05:10.601Z,7.50
2019-03-06T08:08:00.967Z,7.60
2019-03-06T08:10:38.796Z,7.80
2019-03-06T08:13:29.903Z,8.10
2019-03-06T08:16:17.745Z,8.30
2019-03-06T08:19:03.084Z,8.60
2019-03-06T08:21:47.116Z,9.00
2019-03-06T08:24:36.709Z,9.50
2019-03-06T08:27:33.386Z,9.90
2019-03-06T08:30:13.096Z,10.60
2019-03-06T08:32:45.349Z,11.00
2019-03-06T08:35:24.327Z,11.10
2019-03-06T08:38:08.680Z,11.30
2019-03-06T08:41:03.590Z,11.10
2019-03-06T08:43:49.641Z,11.50
2019-03-06T08:46:44.440Z,12.00
2019-03-06T08:49:44.566Z,12.50
2019-03-06T08:55:17.459Z,12.90
2019-03-06T08:57:57.967Z,13.40
2019-03-06T09:00:45.478Z,13.90
2019-03-06T09:03:43.058Z,14.90
2019-03-06T09:06:34.271Z,15.10
2019-03-06T09:09:34.871Z,15.70
2019-03-06T09:12:24.790Z,15.70
2019-03-06T09:15:13.740Z,15.50
2019-03-06T09:18:19.473Z,14.60
2019-03-06T09:20:52.560Z,14.40
2019-03-06T09:23:41.660Z,15.00
2019-03-06T09:26:23.248Z,15.40
2019-03-06T09:29:14.465Z,14.90
2019-03-06T09:31:51.951Z,15.40
2019-03-06T09:34:28.319Z,15.20
2019-03-06T09:37:13.405Z,14.50
2019-03-06T09:40:09.898Z,14.70
2019-03-06T09:42:56.438Z,15.10
2019-03-06T09:45:50.714Z,16.40
2019-03-06T09:48:27.193Z,16.40
2019-03-06T09:51:22.963Z,16.80
2019-03-06T09:54:15.931Z,17.20
2019-03-06T09:57:07.388Z,16.70
2019-03-06T09:59:43.939Z,17.20
2019-03-06T10:02:44.858Z,17.10
2019-03-06T10:05:31.405Z,16.40
2019-03-06T10:08:25.079Z,16.20
2019-03-06T10:11:07.760Z,17.00
2019-03-06T10:13:47.707Z,17.40
2019-03-06T10:16:48.602Z,18.10
2019-03-06T10:19:11.595Z,18.60
2019-03-06T10:21:46.427Z,19.60
2019-03-06T10:24:30.514Z,20.30
2019-03-06T10:27:08.172Z,21.00
2019-03-06T10:29:45.262Z,21.90
2019-03-06T10:32:24.802Z,22.40
2019-03-06T10:35:00.900Z,21.40
2019-03-06T10:37:33.842Z,19.90
2019-03-06T10:40:14.441Z,18.30
2019-03-06T10:42:52.710Z,16.40
2019-03-06T10:45:29.534Z,15.40
2019-03-06T10:48:06.791Z,14.60
2019-03-06T10:50:44.378Z,14.30
2019-03-06T10:53:28.853Z,14.50
2019-03-06T10:56:02.802Z,15.90
2019-03-06T10:58:39.131Z,17.20
2019-03-06T11:01:22.953Z,18.10
2019-03-06T11:04:05.161Z,17.80
2019-03-06T11:06:41.976Z,18.10
2019-03-06T11:09:24.450Z,18.90
2019-03-06T11:12:06.888Z,19.60
2019-03-06T11:14:47.317Z,19.10
2019-03-06T11:17:24.808Z,19.00
2019-03-06T11:20:03.015Z,18.90
2019-03-06T11:22:38.567Z,18.00
2019-03-06T11:25:30.600Z,17.00
2019-03-06T11:28:11.368Z,16.40
2019-03-06T11:30:45.412Z,15.40
2019-03-06T11:33:19.188Z,14.60
2019-03-06T11:36:08.503Z,14.20
2019-03-06T11:38:52.817Z,13.60
2019-03-06T11:41:27.143Z,13.30
2019-03-06T11:44:26.207Z,13.50
2019-03-06T11:47:10.890Z,13.70
2019-03-06T11:49:49.296Z,14.70
2019-03-06T11:52:29.661Z,16.30
2019-03-06T11:55:06.366Z,17.10
2019-03-06T11:57:40.363Z,17.80
2019-03-06T12:00:21.013Z,17.90
2019-03-06T12:03:13.631Z,17.40
2019-03-06T12:05:58.120Z,17.50
2019-03-06T12:08:35.831Z,18.20
2019-03-06T12:11:16.192Z,17.80
2019-03-06T12:13:58.857Z,17.90
2019-03-06T12:16:56.777Z,18.90
2019-03-06T12:19:38.042Z,19.60
2019-03-06T12:22:16.746Z,20.20
2019-03-06T12:25:07.674Z,20.30
2019-03-06T12:27:36.287Z,19.60
2019-03-06T12:30:21.549Z,19.10
2019-03-06T12:33:06.377Z,18.50
2019-03-06T12:35:50.750Z,18.00
2019-03-06T12:38:25.992Z,17.70
2019-03-06T12:41:07.204Z,17.60
2019-03-06T12:43:49.711Z,17.20
2019-03-06T12:46:33.185Z,16.80
2019-03-06T12:49:15.437Z,16.80
2019-03-06T12:51:54.303Z,17.00
2019-03-06T12:54:41.178Z,17.00
2019-03-06T12:57:21.334Z,16.90
2019-03-06T12:59:59.338Z,16.20
2019-03-06T13:02:45.312Z,15.80
2019-03-06T13:05:29.180Z,15.30
2019-03-06T13:08:19.475Z,15.20
2019-03-06T13:10:48.564Z,14.90
2019-03-06T13:13:35.401Z,14.90
2019-03-06T13:16:07.958Z,14.70
2019-03-06T13:18:43.174Z,14.40
2019-03-06T13:21:31.622Z,14.30
2019-03-06T13:24:12.689Z,14.20
2019-03-06T13:26:53.591Z,14.10
2019-03-06T13:29:45.486Z,14.00
2019-03-06T13:32:22.554Z,14.10
2019-03-06T13:34:55.520Z,14.20
2019-03-06T13:37:34.111Z,14.00
2019-03-06T13:40:18.086Z,14.00
2019-03-06T13:42:46.575Z,14.00
2019-03-06T13:45:25.531Z,13.90
2019-03-06T13:48:04.676Z,13.90
2019-03-06T13:50:43.352Z,14.10
2019-03-06T13:53:24.752Z,14.40
2019-03-06T13:56:01.783Z,14.40
2019-03-06T13:58:34.284Z,14.30
2019-03-06T14:01:27.195Z,14.30
2019-03-06T14:04:01.609Z,14.30
2019-03-06T14:06:36.948Z,14.20
2019-03-06T14:09:29.606Z,14.00
2019-03-06T14:12:09.712Z,13.80
2019-03-06T14:14:41.846Z,13.70
2019-03-06T14:17:15.862Z,13.80
2019-03-06T14:19:51.305Z,13.90
2019-03-06T14:22:32.465Z,13.90
2019-03-06T14:25:26.955Z,14.00
2019-03-06T14:28:17.982Z,14.10
2019-03-06T14:30:47.679Z,14.20
2019-03-06T14:33:36.825Z,14.30
2019-03-06T14:36:18.241Z,14.30
2019-03-06T14:39:25.534Z,14.10
2019-03-06T14:41:43.452Z,14.00
2019-03-06T14:44:33.448Z,13.90
2019-03-06T14:47:19.811Z,14.00
2019-03-06T14:50:06.757Z,14.10
2019-03-06T14:52:45.269Z,14.00
2019-03-06T14:55:36.793Z,14.10
2019-03-06T14:58:19.837Z,14.20
2019-03-06T15:01:05.187Z,14.20
2019-03-06T15:03:40.330Z,14.20
2019-03-06T15:06:30.203Z,14.20
2019-03-06T15:09:22.449Z,14.20
2019-03-06T15:11:56.362Z,14.00
2019-03-06T15:15:04.088Z,13.90
2019-03-06T15:17:21.707Z,13.90
2019-03-06T15:19:57.238Z,13.90
2019-03-06T15:22:38.643Z,14.00
2019-03-06T15:25:20.938Z,14.00
2019-03-06T15:27:59.240Z,13.90
2019-03-06T15:30:48.105Z,14.00
2019-03-06T15:33:22.213Z,13.90
2019-03-06T15:36:01.356Z,13.80
2019-03-06T15:38:38.438Z,13.70
2019-03-06T15:41:14.601Z,13.70
2019-03-06T15:44:00.560Z,13.60
2019-03-06T15:46:40.952Z,13.60
2019-03-06T15:49:20.302Z,13.60
2019-03-06T15:52:05.965Z,13.50
2019-03-06T15:54:52.576Z,13.50
2019-03-06T15:57:33.341Z,13.40
2019-03-06T16:00:27.401Z,13.40
2019-03-06T16:03:16.964Z,13.30
2019-03-06T16:05:55.899Z,13.30
2019-03-06T16:08:37.924Z,13.20
2019-03-06T16:11:14.394Z,13.20
2019-03-06T16:14:09.002Z,13.10
2019-03-06T16:19:46.015Z,13.00
2019-03-06T16:22:27.450Z,12.90
2019-03-06T16:25:15.724Z,12.90
2019-03-06T16:28:10.929Z,12.90
2019-03-06T16:30:51.494Z,12.80
2019-03-06T16:33:38.307Z,12.80
2019-03-06T16:36:10.605Z,12.70
2019-03-06T16:38:50.734Z,12.70
2019-03-06T16:41:22.899Z,12.60
2019-03-06T16:44:00.700Z,12.60
2019-03-06T16:46:44.746Z,12.60
2019-03-06T16:49:27.872Z,12.60
2019-03-06T16:52:12.945Z,12.50
2019-03-06T16:54:52.611Z,12.50
2019-03-06T16:57:43.873Z,12.50
2019-03-06T17:00:25.461Z,12.40
2019-03-06T17:03:10.152Z,12.30
2019-03-06T17:05:46.750Z,12.30
2019-03-06T17:08:27.909Z,12.20
2019-03-06T17:11:12.536Z,12.10
2019-03-06T17:13:51.090Z,12.10
2019-03-06T17:16:35.505Z,12.10
2019-03-06T17:19:27.335Z,12.00
2019-03-06T17:22:11.515Z,12.00
2019-03-06T17:24:47.543Z,12.00
2019-03-06T17:27:41.480Z,12.00
2019-03-06T17:30:32.292Z,12.00
2019-03-06T17:33:24.728Z,11.90
2019-03-06T17:36:05.471Z,11.90
2019-03-06T17:39:00.145Z,11.80
2019-03-06T17:41:35.589Z,11.80
2019-03-06T17:44:17.332Z,11.80
2019-03-06T17:47:05.681Z,11.80
2019-03-06T17:49:37.406Z,11.70
2019-03-06T17:52:13.746Z,11.70
2019-03-06T17:54:50.347Z,11.70
2019-03-06T17:57:23.538Z,11.60
2019-03-06T18:00:19.614Z,11.50
2019-03-06T18:02:54.044Z,11.50
2019-03-06T18:05:35.056Z,11.50
2019-03-06T18:08:12.455Z,11.50
2019-03-06T18:10:56.195Z,11.50
2019-03-06T18:13:50.204Z,11.50
2019-03-06T18:16:37.166Z,11.50
2019-03-06T18:19:14.160Z,11.50
2019-03-06T18:21:58.810Z,11.50
2019-03-06T18:24:44.468Z,11.40
2019-03-06T18:27:36.132Z,11.40
2019-03-06T18:30:26.128Z,11.40
2019-03-06T18:33:12.287Z,11.30
2019-03-06T18:35:56.474Z,11.30
2019-03-06T18:41:54.541Z,11.30
2019-03-06T18:44:18.708Z,11.30
2019-03-06T18:47:02.421Z,11.30
2019-03-06T18:49:38.509Z,11.30
2019-03-06T18:52:16.812Z,11.30
2019-03-06T18:55:03.153Z,11.30
2019-03-06T18:58:02.628Z,11.30
2019-03-06T19:00:47.789Z,11.20
2019-03-06T19:03:49.551Z,11.10
2019-03-06T19:06:32.104Z,11.10
2019-03-06T19:09:09.967Z,11.00
2019-03-06T19:11:50.847Z,10.90
2019-03-06T19:14:37.247Z,10.80
2019-03-06T19:18:16.694Z,10.70
2019-03-06T19:20:14.453Z,10.80
2019-03-06T19:22:57.056Z,10.80
2019-03-06T19:25:57.687Z,10.80
2019-03-06T19:28:39.496Z,10.70
2019-03-06T19:31:23.441Z,10.70
2019-03-06T19:34:18.588Z,10.70
2019-03-06T19:39:55.235Z,10.60
2019-03-06T19:42:39.368Z,10.60
2019-03-06T19:48:38.353Z,10.50
2019-03-06T19:51:14.002Z,10.60
2019-03-06T19:54:00.386Z,10.50
2019-03-06T19:57:08.309Z,10.60
2019-03-06T19:59:49.594Z,10.50
2019-03-06T20:02:36.665Z,10.50
2019-03-06T20:05:30.125Z,10.50
2019-03-06T20:08:17.808Z,10.50
2019-03-06T20:11:12.971Z,10.40
2019-03-06T20:14:20.105Z,10.40
2019-03-06T20:17:01.262Z,10.40
2019-03-06T20:19:44.786Z,10.40
2019-03-06T20:22:22.863Z,10.30
2019-03-06T20:25:02.071Z,10.30
2019-03-06T20:27:48.436Z,10.20
2019-03-06T20:30:35.682Z,10.20
2019-03-06T20:33:24.772Z,10.10
2019-03-06T20:36:07.872Z,10.20
2019-03-06T20:38:44.645Z,10.10
2019-03-06T20:41:26.695Z,10.10
2019-03-06T20:44:18.444Z,10.20
2019-03-06T20:47:02.903Z,10.10
2019-03-06T20:49:41.439Z,10.10
2019-03-06T20:52:29.436Z,10.10
2019-03-06T20:57:57.999Z,10.10
2019-03-06T21:00:40.679Z,10.10
2019-03-06T21:03:29.201Z,10.10
2019-03-06T21:06:13.043Z,10.10
2019-03-06T21:08:51.077Z,10.10
2019-03-06T21:11:42.980Z,10.00
2019-03-06T21:14:10.465Z,10.10
2019-03-06T21:19:49.282Z,10.00
2019-03-06T21:25:20.452Z,10.10
2019-03-06T21:28:07.630Z,10.10
2019-03-06T21:30:44.780Z,10.10
2019-03-06T21:33:24.187Z,10.10
2019-03-06T21:38:40.504Z,10.10
2019-03-06T21:41:21.376Z,10.10
2019-03-06T21:43:55.598Z,10.00
2019-03-06T21:46:33.628Z,10.00
2019-03-06T21:49:21.654Z,10.00
2019-03-06T21:51:51.859Z,10.10
2019-03-06T21:54:35.167Z,10.10
2019-03-06T21:57:17.009Z,10.00
2019-03-06T22:00:02.115Z,10.00
2019-03-06T22:02:51.242Z,10.00
2019-03-06T22:05:42.505Z,10.00
2019-03-06T22:08:44.009Z,10.00
2019-03-06T22:11:19.467Z,10.10
2019-03-06T22:14:00.636Z,10.10
2019-03-06T22:16:36.082Z,10.10
2019-03-06T22:19:17.267Z,10.00
2019-03-06T22:21:54.684Z,10.00
2019-03-06T22:24:32.096Z,10.10
2019-03-06T22:27:09.614Z,10.10
2019-03-06T22:29:54.201Z,10.00
2019-03-06T22:35:33.372Z,10.10
2019-03-06T22:38:15.134Z,10.10
2019-03-06T22:40:54.914Z,10.10
2019-03-06T22:43:43.956Z,10.20
2019-03-06T22:46:23.469Z,10.20
2019-03-06T22:49:05.551Z,10.10
2019-03-06T22:51:41.295Z,10.20
2019-03-06T22:54:21.784Z,10.10
2019-03-06T22:56:56.000Z,10.00
2019-03-06T22:59:32.468Z,10.10
2019-03-06T23:02:13.721Z,10.00
2019-03-06T23:04:59.948Z,10.00
2019-03-06T23:07:37.954Z,10.00
2019-03-06T23:10:15.921Z,9.90
2019-03-06T23:12:50.869Z,10.00
2019-03-06T23:15:26.643Z,10.10
2019-03-06T23:18:01.916Z,10.20
2019-03-06T23:20:43.244Z,10.10
2019-03-06T23:23:18.405Z,10.10
2019-03-06T23:26:06.575Z,10.10
2019-03-06T23:28:59.022Z,10.10
2019-03-06T23:31:34.157Z,10.10
2019-03-06T23:34:10.355Z,10.10
2019-03-06T23:36:48.463Z,10.00
2019-03-06T23:39:34.062Z,10.00
2019-03-06T23:42:06.696Z,10.00
2019-03-06T23:44:41.969Z,9.90
2019-03-06T23:47:28.195Z,9.80
2019-03-06T23:50:07.020Z,10.00
2019-03-06T23:53:00.464Z,10.00
2019-03-06T23:55:53.450Z,10.00
2019-03-06T23:58:32.425Z,9.90
